Time;durP1;ratioP1;P1;durP2;ratioP2;P2;SDS_P1;SDS_P2;PMS_P1;PMS_P2;Temp;Humidity;BMP_temperature;BMP_pressure;BME280_temperature;BME280_humidity;BME280_pressure;Samples;Min_cycle;Max_cycle;Signal;HPM_P1;HPM_P2
2021/05/29 00:01:39;;;;;;;1.48;1.20;;;;;;;11.31;63.17;96944.63;4917581;29;20060;-74
2021/05/29 00:04:05;;;;;;;1.00;0.93;;;;;;;11.27;63.23;96945.25;4916959;29;20075;-75
2021/05/29 00:06:31;;;;;;;1.85;0.90;;;;;;;11.21;63.39;96940.84;4916364;29;20059;-75
2021/05/29 00:08:57;;;;;;;1.00;1.00;;;;;;;11.17;63.70;96950.97;4916894;29;20071;-75
2021/05/29 00:11:24;;;;;;;0.95;0.95;;;;;;;11.16;63.59;96944.09;4917173;29;20043;-74
2021/05/29 00:13:50;;;;;;;1.08;1.00;;;;;;;11.13;63.75;96941.91;4917371;29;20048;-74
2021/05/29 00:16:16;;;;;;;1.08;0.95;;;;;;;11.12;63.59;96940.28;4917181;29;20051;-74
2021/05/29 00:18:42;;;;;;;0.95;0.95;;;;;;;11.10;63.73;96939.69;4917015;29;20059;-75
2021/05/29 00:21:08;;;;;;;0.88;0.88;;;;;;;11.07;63.74;96932.25;4917580;29;20043;-74
2021/05/29 00:23:35;;;;;;;1.45;1.23;;;;;;;11.05;63.80;96940.31;4917184;29;20059;-75
2021/05/29 00:26:02;;;;;;;0.85;0.85;;;;;;;11.02;63.92;96932.84;4917218;29;20468;-74
2021/05/29 00:28:28;;;;;;;0.90;0.90;;;;;;;11.00;63.93;96926.22;4917009;29;20051;-75
2021/05/29 00:31:06;;;;;;;0.88;0.88;;;;;;;10.94;63.84;96925.22;4916833;29;20036;-75
2021/05/29 00:33:32;;;;;;;1.00;1.00;;;;;;;10.90;63.97;96924.84;4917020;29;20048;-74
2021/05/29 00:35:59;;;;;;;1.00;1.00;;;;;;;10.85;64.06;96927.25;4916868;29;20036;-74
2021/05/29 00:38:25;;;;;;;1.27;1.00;;;;;;;10.85;64.21;96923.84;4900008;29;20051;-74
2021/05/29 00:40:51;;;;;;;0.93;0.93;;;;;;;10.85;64.31;96926.47;4917113;29;20052;-75
2021/05/29 00:43:17;;;;;;;0.90;0.90;;;;;;;10.84;64.28;96930.13;4900200;29;20040;-74
2021/05/29 00:45:44;;;;;;;0.93;0.90;;;;;;;10.83;64.46;96924.03;4917111;29;20392;-74
2021/05/29 00:48:10;;;;;;;0.98;0.98;;;;;;;10.84;64.41;96917.00;4917105;29;20405;-74
2021/05/29 00:50:47;;;;;;;0.80;0.80;;;;;;;10.83;64.51;96918.00;4915732;29;20071;-75
2021/05/29 00:53:16;;;;;;;1.25;1.17;;;;;;;10.81;64.50;96910.31;4906525;29;20051;-75
2021/05/29 00:55:42;;;;;;;2.30;0.93;;;;;;;10.79;64.54;96907.09;4916630;29;20043;-74
2021/05/29 00:58:09;;;;;;;1.13;1.08;;;;;;;10.79;64.58;96906.31;4917241;29;20048;-74
2021/05/29 01:00:35;;;;;;;2.05;1.27;;;;;;;10.76;64.69;96902.28;4917116;29;20056;-74
2021/05/29 01:03:01;;;;;;;0.90;0.90;;;;;;;10.78;64.75;96908.13;4916926;29;20040;-74
2021/05/29 01:05:28;;;;;;;1.30;1.20;;;;;;;10.78;64.79;96910.75;4918194;29;20040;-74
2021/05/29 01:07:54;;;;;;;1.35;1.00;;;;;;;10.75;64.80;96909.34;4920337;29;20044;-75
2021/05/29 01:10:23;;;;;;;0.90;0.90;;;;;;;10.74;64.82;96909.56;4920371;29;20059;-74
2021/05/29 01:12:50;;;;;;;1.05;1.05;;;;;;;10.71;64.81;96904.75;4920287;29;20043;-75
2021/05/29 01:15:18;;;;;;;0.80;0.80;;;;;;;10.70;64.96;96903.13;4920840;29;20044;-74
2021/05/29 01:17:45;;;;;;;0.80;0.80;;;;;;;10.70;65.08;96906.53;4920487;29;20044;-75
2021/05/29 01:20:12;;;;;;;0.80;0.80;;;;;;;10.73;65.18;96902.69;4920454;29;20397;-74
2021/05/29 01:22:45;;;;;;;1.08;0.98;;;;;;;10.75;65.42;96903.28;4920568;29;20385;-74
2021/05/29 01:25:25;;;;;;;1.15;0.88;;;;;;;10.81;65.84;96910.31;4920264;29;20481;-74
2021/05/29 01:28:24;;;;;;;1.30;0.93;;;;;;;10.82;65.75;96917.19;4920417;29;20052;-74
2021/05/29 01:30:56;;;;;;;1.00;0.88;;;;;;;10.85;65.39;96911.53;4904369;29;20162;-75
2021/05/29 01:33:28;;;;;;;0.98;0.93;;;;;;;10.88;65.34;96907.69;4903360;29;20051;-74
2021/05/29 01:35:58;;;;;;;0.82;0.82;;;;;;;10.89;65.22;96904.84;4920604;29;20032;-74
2021/05/29 01:38:25;;;;;;;0.80;0.80;;;;;;;10.93;65.29;96906.03;4919713;29;20059;-74
2021/05/29 01:40:52;;;;;;;1.20;1.10;;;;;;;10.95;65.24;96901.38;4919803;29;20055;-74
2021/05/29 01:43:19;;;;;;;0.85;0.85;;;;;;;10.98;65.20;96908.03;4920025;29;20504;-74
2021/05/29 01:45:46;;;;;;;1.05;0.90;;;;;;;11.00;65.24;96903.38;4919984;29;20056;-74
2021/05/29 01:48:12;;;;;;;0.80;0.80;;;;;;;11.03;65.14;96900.34;4918898;29;20060;-74
2021/05/29 01:50:46;;;;;;;0.90;0.88;;;;;;;11.04;65.10;96904.56;4920041;29;20075;-74
2021/05/29 01:53:20;;;;;;;1.00;0.97;;;;;;;11.03;64.76;96900.34;4906622;29;20059;-74
2021/05/29 01:55:47;;;;;;;1.27;1.13;;;;;;;11.00;64.75;96908.63;4919693;29;20408;-75
2021/05/29 01:58:14;;;;;;;0.90;0.90;;;;;;;11.01;64.72;96920.75;4920598;29;20060;-74
2021/05/29 02:00:41;;;;;;;1.00;1.00;;;;;;;10.99;64.80;96924.59;4919311;29;20056;-74
2021/05/29 02:03:07;;;;;;;0.70;0.70;;;;;;;10.97;64.85;96919.56;4919929;29;20044;-74
2021/05/29 02:05:34;;;;;;;0.73;0.73;;;;;;;10.98;64.82;96918.53;4919769;29;20043;-74
2021/05/29 02:08:03;;;;;;;0.80;0.80;;;;;;;10.97;64.82;96920.34;4918941;29;20051;-74
2021/05/29 02:10:31;;;;;;;0.93;0.93;;;;;;;10.95;64.87;96922.38;4919459;29;20047;-75
2021/05/29 02:12:59;;;;;;;1.13;1.10;;;;;;;10.94;64.89;96917.34;4902909;29;20421;-74
2021/05/29 02:15:32;;;;;;;1.35;1.00;;;;;;;10.93;64.90;96913.91;4919604;29;20484;-75
2021/05/29 02:18:02;;;;;;;0.90;0.90;;;;;;;10.94;65.19;96914.72;4911202;29;20036;-75
2021/05/29 02:20:39;;;;;;;0.82;0.82;;;;;;;10.95;65.69;96917.13;4918435;29;20040;-74
2021/05/29 02:23:06;;;;;;;0.98;0.98;;;;;;;10.95;65.17;96918.97;4919677;29;20055;-74
2021/05/29 02:25:33;;;;;;;0.90;0.90;;;;;;;10.91;65.07;96923.00;4918987;29;20036;-74
2021/05/29 02:28:00;;;;;;;3.00;1.58;;;;;;;10.91;65.35;96917.75;4919277;29;20036;-74
2021/05/29 02:30:26;;;;;;;1.08;1.08;;;;;;;10.90;65.41;96922.22;4902274;29;20039;-74
2021/05/29 02:32:53;;;;;;;1.10;1.10;;;;;;;10.89;65.63;96925.84;4918837;29;20063;-75
2021/05/29 02:35:19;;;;;;;3.30;1.13;;;;;;;10.90;65.61;96919.59;4919056;29;20039;-75
2021/05/29 02:37:46;;;;;;;1.00;1.00;;;;;;;10.88;65.49;96921.63;4918902;29;20056;-74
2021/05/29 02:40:13;;;;;;;1.27;1.17;;;;;;;10.86;65.98;96915.78;4919428;29;20051;-74
2021/05/29 02:42:39;;;;;;;1.25;1.10;;;;;;;10.83;65.72;96908.31;4918932;29;20392;-75
2021/05/29 02:45:07;;;;;;;1.08;1.08;;;;;;;10.79;65.79;96917.59;4918987;29;20484;-74
2021/05/29 02:47:33;;;;;;;1.40;1.30;;;;;;;10.72;65.84;96906.34;4918706;29;20047;-75
2021/05/29 02:50:00;;;;;;;1.08;1.08;;;;;;;10.67;65.78;96912.22;4917883;29;20465;-74
2021/05/29 02:52:27;;;;;;;1.27;1.23;;;;;;;10.61;65.93;96915.66;4918710;29;20044;-74
2021/05/29 02:54:53;;;;;;;1.25;1.23;;;;;;;10.55;66.10;96916.47;4917706;29;20405;-74
2021/05/29 02:57:19;;;;;;;1.30;1.30;;;;;;;10.49;66.20;96912.84;4919000;29;20079;-74
2021/05/29 02:59:45;;;;;;;1.25;1.25;;;;;;;10.45;66.43;96914.28;4918624;29;20051;-74
2021/05/29 03:02:12;;;;;;;1.30;1.20;;;;;;;10.42;66.53;96916.50;4918662;29;20051;-74
2021/05/29 03:04:38;;;;;;;1.70;1.60;;;;;;;10.41;66.63;96920.13;4918487;29;20032;-75
2021/05/29 03:07:05;;;;;;;1.48;1.38;;;;;;;10.36;66.73;96918.94;4918824;29;20099;-74
2021/05/29 03:09:32;;;;;;;1.27;1.17;;;;;;;10.34;66.78;96928.00;4918806;29;20370;-74
2021/05/29 03:11:59;;;;;;;1.08;1.08;;;;;;;10.31;67.01;96923.16;4918301;29;20040;-74
2021/05/29 03:14:26;;;;;;;1.45;1.30;;;;;;;10.28;66.92;96931.41;4918524;29;20044;-74
2021/05/29 03:16:52;;;;;;;1.27;1.27;;;;;;;10.28;67.08;96934.03;4918050;29;20500;-74
2021/05/29 03:19:19;;;;;;;1.15;1.08;;;;;;;10.27;67.19;96935.06;4918468;29;20036;-74
2021/05/29 03:21:45;;;;;;;1.17;1.13;;;;;;;10.27;67.39;96933.25;4917996;29;20064;-76
2021/05/29 03:24:12;;;;;;;1.30;1.30;;;;;;;10.28;67.41;96937.47;4918049;29;20052;-76
2021/05/29 03:26:38;;;;;;;1.45;1.30;;;;;;;10.28;67.46;96937.47;4918047;29;20036;-76
2021/05/29 03:29:05;;;;;;;1.20;1.10;;;;;;;10.25;67.49;96940.50;4917266;29;20495;-76
2021/05/29 03:31:32;;;;;;;0.88;0.88;;;;;;;10.23;67.61;96937.28;4917889;29;20036;-76
2021/05/29 03:33:59;;;;;;;1.75;1.20;;;;;;;10.23;67.92;96936.47;4917770;29;20055;-75
2021/05/29 03:36:25;;;;;;;1.25;1.02;;;;;;;10.21;67.69;96928.81;4917729;29;20040;-75
2021/05/29 03:38:51;;;;;;;1.20;1.10;;;;;;;10.21;67.88;96936.66;4917239;29;20051;-75
2021/05/29 03:41:17;;;;;;;1.42;1.13;;;;;;;10.20;67.98;96942.09;4900321;29;20473;-75
2021/05/29 03:43:43;;;;;;;1.33;1.23;;;;;;;10.19;68.04;96943.13;4917867;29;20036;-75
2021/05/29 03:46:10;;;;;;;1.15;1.15;;;;;;;10.18;68.03;96944.13;4916892;29;20059;-75
2021/05/29 03:48:37;;;;;;;0.98;0.93;;;;;;;10.15;68.07;96947.97;4918141;29;20051;-75
2021/05/29 03:51:03;;;;;;;1.60;1.50;;;;;;;10.13;68.19;96947.34;4917548;29;20039;-74
2021/05/29 03:53:29;;;;;;;1.38;1.27;;;;;;;10.12;68.41;96940.50;4917660;29;20392;-75
2021/05/29 03:55:56;;;;;;;1.10;1.10;;;;;;;10.12;68.28;96951.81;4917581;29;20044;-74
2021/05/29 03:58:22;;;;;;;1.20;1.08;;;;;;;10.12;68.45;96945.72;4917729;29;20060;-74
2021/05/29 04:00:48;;;;;;;1.17;1.08;;;;;;;10.14;68.62;96955.03;4917442;29;20481;-75
2021/05/29 04:03:14;;;;;;;1.48;1.38;;;;;;;10.15;68.64;96961.06;4917423;29;20044;-75
2021/05/29 04:05:41;;;;;;;1.40;1.33;;;;;;;10.15;68.62;96959.25;4917472;29;20373;-75
2021/05/29 04:08:07;;;;;;;1.30;1.20;;;;;;;10.14;68.74;96962.06;4900601;29;20063;-75
2021/05/29 04:10:35;;;;;;;1.20;1.20;;;;;;;10.12;68.79;96964.91;4917578;29;20400;-75
2021/05/29 04:13:01;;;;;;;1.27;1.17;;;;;;;10.11;68.80;96972.97;4917515;29;20032;-75
2021/05/29 04:15:28;;;;;;;1.33;1.33;;;;;;;10.10;68.90;96971.34;4916316;29;20056;-75
2021/05/29 04:17:55;;;;;;;1.40;1.40;;;;;;;10.10;68.89;96977.41;4917718;29;20036;-75
2021/05/29 04:20:24;;;;;;;1.30;1.20;;;;;;;10.12;69.06;96975.38;4917212;29;20055;-75
2021/05/29 04:22:51;;;;;;;1.00;1.00;;;;;;;10.14;68.97;96968.13;4917440;29;20048;-75
2021/05/29 04:25:20;;;;;;;1.30;1.17;;;;;;;10.15;69.08;96976.78;4917072;29;20047;-75
2021/05/29 04:27:46;;;;;;;1.98;1.30;;;;;;;10.14;69.00;96983.84;4917452;29;20469;-74
2021/05/29 04:30:17;;;;;;;1.05;1.02;;;;;;;10.13;69.34;96971.75;4917159;29;20040;-74
2021/05/29 04:32:44;;;;;;;1.10;1.10;;;;;;;10.15;69.24;96982.84;4917548;29;20080;-74
2021/05/29 04:35:10;;;;;;;1.00;1.00;;;;;;;10.16;69.30;96991.50;4916197;29;20044;-74
2021/05/29 04:37:38;;;;;;;1.00;0.98;;;;;;;10.17;69.38;96987.88;4917086;29;20051;-74
2021/05/29 04:40:10;;;;;;;1.20;1.10;;;;;;;10.20;69.58;96991.91;4916258;29;20075;-74
2021/05/29 04:42:38;;;;;;;1.10;1.10;;;;;;;10.22;69.44;96982.03;4915811;29;20472;-74
2021/05/29 04:45:06;;;;;;;1.50;1.40;;;;;;;10.26;69.31;96986.66;4917155;29;20412;-74
2021/05/29 04:47:33;;;;;;;1.20;1.10;;;;;;;10.29;69.53;96981.06;4916852;29;20480;-74
2021/05/29 04:49:59;;;;;;;1.38;1.10;;;;;;;10.34;69.50;96983.88;4917030;29;20036;-74
2021/05/29 04:52:25;;;;;;;1.30;1.20;;;;;;;10.39;69.31;96988.50;4916819;29;20040;-75
2021/05/29 04:54:52;;;;;;;1.25;1.10;;;;;;;10.44;69.52;96985.28;4916667;29;20043;-75
2021/05/29 04:57:18;;;;;;;1.20;1.10;;;;;;;10.49;69.47;96990.72;4916845;29;20401;-74
2021/05/29 04:59:44;;;;;;;1.42;1.23;;;;;;;10.53;69.21;96989.31;4916880;29;20040;-73
2021/05/29 05:02:10;;;;;;;1.00;1.00;;;;;;;10.58;69.13;96986.84;4916601;29;20469;-75
2021/05/29 05:04:37;;;;;;;1.30;1.20;;;;;;;10.63;69.12;96994.94;4916848;29;20465;-75
2021/05/29 05:07:03;;;;;;;1.15;1.08;;;;;;;10.69;69.09;96993.31;4916847;29;20420;-75
2021/05/29 05:09:29;;;;;;;1.73;1.05;;;;;;;10.75;69.00;96989.84;4916617;29;20488;-75
2021/05/29 05:11:55;;;;;;;1.65;1.10;;;;;;;10.82;69.04;96992.50;4916708;29;20369;-74
2021/05/29 05:14:22;;;;;;;1.00;1.00;;;;;;;10.92;68.92;96998.13;4916891;29;20578;-74
2021/05/29 05:16:48;;;;;;;1.10;1.00;;;;;;;11.02;68.67;96995.84;4916507;29;20401;-75
2021/05/29 05:19:14;;;;;;;1.10;1.10;;;;;;;11.12;68.58;96992.78;4916146;29;20055;-74
2021/05/29 05:21:41;;;;;;;2.00;1.05;;;;;;;11.23;68.40;96996.59;4916408;29;20048;-75
2021/05/29 05:24:07;;;;;;;1.65;1.00;;;;;;;11.35;68.04;96993.09;4917016;29;20477;-74
2021/05/29 05:26:34;;;;;;;1.90;1.10;;;;;;;11.56;68.21;96999.06;4917109;29;20051;-74
2021/05/29 05:29:00;;;;;;;1.25;1.15;;;;;;;11.79;67.75;97001.16;4916654;29;20040;-74
2021/05/29 05:31:26;;;;;;;1.02;1.00;;;;;;;12.16;67.59;97010.03;4916678;29;20040;-74
2021/05/29 05:33:53;;;;;;;1.25;1.10;;;;;;;12.49;67.06;97010.78;4915642;29;20048;-74
2021/05/29 05:36:20;;;;;;;2.25;1.17;;;;;;;12.81;66.55;97003.63;4916389;29;20044;-74
2021/05/29 05:38:46;;;;;;;0.95;0.93;;;;;;;13.14;65.77;97005.06;4902231;29;20047;-74
2021/05/29 05:41:13;;;;;;;0.90;0.90;;;;;;;13.54;65.19;97012.53;4916585;29;20047;-74
2021/05/29 05:43:40;;;;;;;1.40;0.80;;;;;;;14.19;64.58;97014.44;4916485;29;20047;-74
2021/05/29 05:46:07;;;;;;;1.00;0.93;;;;;;;14.78;63.49;97003.97;4916674;29;20044;-74
2021/05/29 05:48:33;;;;;;;0.80;0.80;;;;;;;15.34;62.32;97005.13;4916441;29;20047;-75
2021/05/29 05:51:01;;;;;;;0.77;0.77;;;;;;;15.85;60.58;96981.50;4916468;29;20052;-74
2021/05/29 05:53:31;;;;;;;0.73;0.73;;;;;;;16.30;58.84;96977.22;4918892;29;20051;-74
2021/05/29 05:56:01;;;;;;;0.55;0.55;;;;;;;16.50;57.25;96968.78;4919547;29;20036;-74
2021/05/29 05:58:29;;;;;;;0.52;0.52;;;;;;;16.17;54.65;96954.53;4919138;29;20388;-74
2021/05/29 06:00:56;;;;;;;0.65;0.60;;;;;;;15.81;55.27;96960.03;4902722;29;20052;-74
2021/05/29 06:03:23;;;;;;;0.77;0.77;;;;;;;15.66;55.07;96969.50;4919717;29;20396;-74
2021/05/29 06:05:49;;;;;;;0.82;0.50;;;;;;;15.52;54.40;96966.38;4919529;29;20419;-74
2021/05/29 06:08:16;;;;;;;1.50;0.80;;;;;;;15.37;54.19;96959.75;4919999;29;20389;-74
2021/05/29 06:10:43;;;;;;;0.50;0.50;;;;;;;15.36;53.88;96955.47;4918811;29;20051;-74
2021/05/29 06:13:14;;;;;;;0.82;0.70;;;;;;;15.80;53.67;96963.72;4919560;29;20389;-75
2021/05/29 06:21:07;;;;;;;0.80;0.80;;;;;;;16.78;50.15;96944.81;4918766;29;20040;-74
2021/05/29 06:23:33;;;;;;;0.60;0.60;;;;;;;16.80;49.83;96942.75;4918503;29;20059;-74
2021/05/29 06:26:00;;;;;;;0.77;0.70;;;;;;;16.78;48.98;96954.63;4919249;29;20040;-74
2021/05/29 06:28:26;;;;;;;0.60;0.60;;;;;;;16.86;48.62;96962.16;4919293;29;20400;-74
2021/05/29 06:30:52;;;;;;;0.43;0.43;;;;;;;17.21;48.19;96967.09;4919062;29;20043;-74
2021/05/29 06:33:18;;;;;;;0.65;0.60;;;;;;;17.52;46.88;96990.50;4919102;29;20500;-74
2021/05/29 06:35:45;;;;;;;0.57;0.57;;;;;;;17.91;46.25;96979.78;4919119;29;20036;-74
2021/05/29 06:38:11;;;;;;;0.50;0.50;;;;;;;18.28;44.95;96982.47;4917658;29;20086;-74
2021/05/29 06:40:37;;;;;;;0.90;0.55;;;;;;;18.57;44.11;96985.63;4919251;29;20469;-74
2021/05/29 06:43:04;;;;;;;0.60;0.60;;;;;;;18.87;43.39;96970.94;4918889;29;20040;-74
2021/05/29 06:45:31;;;;;;;0.50;0.50;;;;;;;18.94;42.43;96984.81;4918916;29;20043;-74
2021/05/29 06:47:59;;;;;;;0.52;0.50;;;;;;;18.57;41.20;97025.47;4918643;29;20031;-74
2021/05/29 06:50:26;;;;;;;0.55;0.55;;;;;;;18.59;40.95;97030.53;4918696;29;20460;-74
2021/05/29 06:52:55;;;;;;;0.30;0.30;;;;;;;18.69;40.67;97019.16;4918664;29;20044;-74
2021/05/29 07:01:00;;;;;;;0.60;0.60;;;;;;;18.59;39.00;97025.22;4918792;29;20504;-74
2021/05/29 07:03:26;;;;;;;0.45;0.40;;;;;;;18.56;38.35;97025.72;4918361;29;20036;-74
2021/05/29 07:05:52;;;;;;;0.50;0.50;;;;;;;18.72;38.25;97038.06;4918426;29;20465;-74
2021/05/29 07:08:18;;;;;;;0.40;0.40;;;;;;;18.64;37.72;97028.69;4918463;29;20051;-74
2021/05/29 07:10:44;;;;;;;0.60;0.60;;;;;;;18.74;37.87;97033.28;4917518;29;20067;-75
2021/05/29 07:13:11;;;;;;;0.40;0.40;;;;;;;18.81;37.54;97028.56;4918076;29;20056;-74
2021/05/29 07:15:39;;;;;;;0.45;0.45;;;;;;;18.85;37.34;97026.19;4918131;29;20055;-74
2021/05/29 07:18:10;;;;;;;0.40;0.40;;;;;;;18.97;37.37;97029.47;4918583;29;20040;-74
2021/05/29 07:20:38;;;;;;;0.47;0.47;;;;;;;19.31;37.14;97036.28;4917353;29;20044;-74
2021/05/29 07:23:05;;;;;;;0.30;0.30;;;;;;;19.56;36.86;97033.72;4918298;29;20036;-74
2021/05/29 07:25:32;;;;;;;0.95;0.68;;;;;;;19.62;36.07;97035.34;4918086;29;20040;-74
2021/05/29 07:27:58;;;;;;;0.40;0.40;;;;;;;19.20;35.90;97028.25;4918356;29;20084;-74
2021/05/29 07:30:25;;;;;;;0.50;0.50;;;;;;;18.93;35.57;97031.03;4917926;29;20044;-74
2021/05/29 07:32:51;;;;;;;0.60;0.55;;;;;;;18.56;36.05;97039.81;4917438;29;20472;-74
2021/05/29 07:35:18;;;;;;;0.45;0.45;;;;;;;18.61;36.08;97031.06;4917728;29;20481;-74
2021/05/29 07:37:44;;;;;;;0.60;0.60;;;;;;;18.81;35.94;97025.13;4918417;29;20043;-74
2021/05/29 07:40:11;;;;;;;0.40;0.40;;;;;;;19.06;35.46;97024.47;4917915;29;20051;-74
2021/05/29 07:42:37;;;;;;;0.60;0.40;;;;;;;19.28;35.37;97026.97;4918181;29;20044;-74
2021/05/29 07:45:05;;;;;;;0.47;0.47;;;;;;;19.52;35.23;97026.53;4917888;29;20393;-75
2021/05/29 07:47:31;;;;;;;0.63;0.57;;;;;;;19.83;35.26;97014.16;4917956;29;20496;-74
2021/05/29 07:49:57;;;;;;;0.60;0.60;;;;;;;20.20;35.25;97011.28;4917862;29;20063;-74
2021/05/29 07:52:23;;;;;;;0.55;0.50;;;;;;;20.53;34.82;97011.78;4917631;29;20172;-74
2021/05/29 07:54:50;;;;;;;0.60;0.60;;;;;;;20.48;34.17;97017.13;4917579;29;20047;-74
2021/05/29 07:57:16;;;;;;;0.47;0.47;;;;;;;20.23;34.23;97026.69;4917733;29;20060;-74
2021/05/29 07:59:45;;;;;;;0.50;0.50;;;;;;;20.44;34.48;97021.38;4917480;29;20055;-74
2021/05/29 08:02:12;;;;;;;0.82;0.50;;;;;;;20.53;34.09;97022.44;4917451;29;20051;-75
2021/05/29 08:04:38;;;;;;;2.28;0.60;;;;;;;20.76;34.43;97020.31;4917775;29;20532;-73
2021/05/29 08:07:04;;;;;;;0.50;0.50;;;;;;;21.03;34.12;97015.47;4917343;29;20048;-73
2021/05/29 08:09:30;;;;;;;0.35;0.35;;;;;;;21.03;33.91;97015.47;4917814;29;20043;-73
2021/05/29 08:11:56;;;;;;;0.88;0.60;;;;;;;21.23;34.00;97016.47;4917229;29;20044;-74
2021/05/29 08:14:23;;;;;;;0.98;0.52;;;;;;;21.39;33.99;97012.66;4917167;29;20040;-74
2021/05/29 08:16:49;;;;;;;0.40;0.30;;;;;;;21.41;33.12;97031.88;4916807;29;20035;-74
2021/05/29 08:19:16;;;;;;;0.65;0.60;;;;;;;21.02;32.50;97031.72;4917325;29;20046;-74
2021/05/29 08:21:45;;;;;;;0.40;0.40;;;;;;;20.70;32.50;97026.72;4916470;29;20044;-74
2021/05/29 08:24:12;;;;;;;1.05;0.50;;;;;;;20.62;32.57;97026.22;4916276;29;20048;-74
2021/05/29 08:26:39;;;;;;;2.08;0.40;;;;;;;20.64;32.70;97026.75;4917297;29;20063;-74
2021/05/29 08:29:07;;;;;;;0.65;0.60;;;;;;;20.90;32.17;97020.56;4916647;29;20059;-74
2021/05/29 08:31:33;;;;;;;0.60;0.50;;;;;;;20.87;31.81;97028.03;4916902;29;20032;-74
2021/05/29 08:33:59;;;;;;;0.98;0.47;;;;;;;20.79;31.36;97017.91;4917472;29;20047;-74
2021/05/29 08:36:26;;;;;;;0.98;0.57;;;;;;;20.71;31.11;97018.47;4917335;29;20472;-74
2021/05/29 08:38:53;;;;;;;0.55;0.55;;;;;;;20.46;30.70;97024.59;4915985;29;20055;-74
2021/05/29 08:41:19;;;;;;;0.47;0.40;;;;;;;20.61;31.22;97021.13;4916808;29;20044;-74
2021/05/29 08:43:46;;;;;;;1.73;0.73;;;;;;;20.53;31.09;97019.78;4900021;29;20386;-74
2021/05/29 08:46:12;;;;;;;0.63;0.63;;;;;;;20.19;31.14;97027.50;4915763;29;20060;-74
2021/05/29 08:48:40;;;;;;;1.02;0.50;;;;;;;20.20;31.45;97031.75;4916882;29;20036;-74
2021/05/29 08:51:14;;;;;;;3.22;0.50;;;;;;;20.00;31.65;97027.22;4916243;29;20055;-74
2021/05/29 08:53:42;;;;;;;1.15;0.50;;;;;;;19.71;31.41;97029.53;4916729;29;20043;-74
2021/05/29 08:56:09;;;;;;;0.38;0.38;;;;;;;19.81;31.93;97024.25;4916813;29;20040;-75
2021/05/29 08:58:35;;;;;;;0.50;0.50;;;;;;;19.95;31.99;97025.34;4916690;29;20044;-75
2021/05/29 09:01:02;;;;;;;0.40;0.40;;;;;;;20.01;32.08;97026.13;4916568;29;20051;-75
2021/05/29 09:03:45;;;;;;;0.52;0.40;;;;;;;19.70;32.00;97028.75;4916330;29;20392;-75
2021/05/29 09:06:13;;;;;;;0.50;0.50;;;;;;;19.46;32.57;97045.16;4916941;29;20052;-75
2021/05/29 09:08:54;;;;;;;0.60;0.60;;;;;;;19.21;33.55;97040.50;4916960;29;20043;-75
2021/05/29 09:11:36;;;;;;;0.70;0.70;;;;;;;19.06;34.37;97045.72;4916586;29;20481;-75
2021/05/29 09:14:24;;;;;;;0.88;0.55;;;;;;;19.14;34.33;97037.25;4916008;29;20063;-75
2021/05/29 09:17:08;;;;;;;0.47;0.47;;;;;;;19.55;34.36;97036.63;4916515;29;20480;-75
2021/05/29 09:19:56;;;;;;;2.28;0.55;;;;;;;19.54;34.00;97048.34;4916422;29;20055;-75
2021/05/29 09:22:32;;;;;;;0.65;0.65;;;;;;;19.97;34.04;97036.53;4915715;29;20043;-75
2021/05/29 09:25:22;;;;;;;0.40;0.40;;;;;;;20.43;33.57;97041.91;4915399;29;20044;-75
2021/05/29 09:28:02;;;;;;;0.80;0.80;;;;;;;20.21;33.16;97042.16;4920279;29;20040;-75
2021/05/29 09:30:38;;;;;;;0.57;0.57;;;;;;;19.78;34.03;97049.53;4920472;29;20473;-75
2021/05/29 09:33:33;;;;;;;0.30;0.30;;;;;;;19.45;33.94;97054.16;4919994;29;20028;-75
2021/05/29 09:36:10;;;;;;;1.58;0.40;;;;;;;19.17;34.66;97060.69;4920190;29;20504;-75
2021/05/29 09:38:41;;;;;;;0.60;0.60;;;;;;;19.11;34.88;97063.56;4919718;29;20047;-75
2021/05/29 09:41:30;;;;;;;0.63;0.50;;;;;;;19.43;34.17;97058.16;4919981;29;20040;-75
2021/05/29 09:44:06;;;;;;;0.50;0.50;;;;;;;19.50;34.00;97052.59;4903431;29;20040;-75
2021/05/29 09:46:51;;;;;;;0.55;0.50;;;;;;;19.57;34.03;97056.63;4907269;29;20032;-75
2021/05/29 09:49:17;;;;;;;0.40;0.40;;;;;;;19.82;34.26;97058.59;4919722;29;20027;-74
2021/05/29 09:51:43;;;;;;;0.57;0.57;;;;;;;20.21;33.60;97044.81;4914004;29;20040;-75
2021/05/29 09:54:12;;;;;;;2.17;1.20;;;;;;;20.54;32.21;97040.03;4919553;29;20051;-75
2021/05/29 09:56:41;;;;;;;0.50;0.50;;;;;;;20.58;31.49;97042.97;4918726;29;20060;-75
2021/05/29 09:59:09;;;;;;;0.77;0.57;;;;;;;20.55;31.33;97041.63;4902539;29;20044;-75
2021/05/29 10:01:53;;;;;;;0.40;0.40;;;;;;;21.04;30.90;97038.41;4920129;29;20052;-76
2021/05/29 10:04:21;;;;;;;0.50;0.50;;;;;;;21.32;31.46;97035.38;4919344;29;20048;-75
2021/05/29 10:07:02;;;;;;;0.52;0.50;;;;;;;21.54;31.14;97043.84;4908635;29;20048;-75
2021/05/29 10:09:29;;;;;;;0.63;0.40;;;;;;;21.68;31.00;97042.19;4919321;29;20047;-75
2021/05/29 10:11:56;;;;;;;0.57;0.43;;;;;;;21.87;31.11;97036.22;4919546;29;20440;-75
2021/05/29 10:14:23;;;;;;;0.60;0.50;;;;;;;21.92;30.89;97036.19;4919474;29;20044;-75
2021/05/29 10:16:49;;;;;;;0.40;0.40;;;;;;;22.05;30.81;97045.47;4919945;29;20408;-75
2021/05/29 10:19:22;;;;;;;0.40;0.40;;;;;;;22.03;29.49;97039.63;4919275;29;20047;-75
2021/05/29 10:21:50;;;;;;;0.60;0.60;;;;;;;22.16;30.41;97041.66;4919280;29;20055;-75
2021/05/29 10:24:17;;;;;;;0.40;0.40;;;;;;;22.14;30.10;97035.00;4919090;29;20585;-75
2021/05/29 10:26:44;;;;;;;0.63;0.40;;;;;;;22.34;30.14;97036.75;4919416;29;20040;-75
2021/05/29 10:29:11;;;;;;;0.88;0.40;;;;;;;22.53;29.67;97044.88;4919230;29;20048;-75
2021/05/29 10:31:38;;;;;;;0.30;0.30;;;;;;;22.77;28.92;97042.28;4919130;29;20036;-75
2021/05/29 10:34:06;;;;;;;0.75;0.50;;;;;;;22.56;28.32;97030.97;4918973;29;20035;-74
2021/05/29 10:36:58;;;;;;;0.35;0.35;;;;;;;22.10;28.12;97045.44;4918759;29;20392;-75
2021/05/29 10:39:42;;;;;;;0.60;0.40;;;;;;;21.49;29.58;97052.69;4917438;29;20055;-74
2021/05/29 10:42:09;;;;;;;;;;;;;;;21.09;30.04;97062.38;4918614;29;20044;-75
2021/05/29 10:44:35;;;;;;;0.63;0.50;;;;;;;20.91;29.94;97059.47;4918716;29;19915;-74
2021/05/29 10:47:21;;;;;;;0.55;0.55;;;;;;;20.99;29.34;97051.72;4918651;29;20028;-74
2021/05/29 10:49:50;;;;;;;0.52;0.50;;;;;;;21.21;29.61;97054.09;4918262;29;20073;-75
2021/05/29 10:55:10;;;;;;;0.40;0.40;;;;;;;21.86;29.71;97056.78;4918726;29;20032;-75
2021/05/29 10:57:51;;;;;;;0.63;0.40;;;;;;;22.05;29.36;97046.25;4918822;29;20146;-75
2021/05/29 11:00:36;;;;;;;0.85;0.52;;;;;;;22.14;29.25;97045.69;4901953;29;20500;-75
2021/05/29 11:03:17;;;;;;;;;;;;;;;22.10;29.23;97042.75;4919214;29;20044;-75
2021/05/29 11:05:45;;;;;;;0.40;0.40;;;;;;;22.10;29.37;97048.88;4918427;29;19915;-75
2021/05/29 11:08:50;;;;;;;0.70;0.50;;;;;;;22.03;29.57;97042.28;4918402;29;20393;-75
2021/05/29 11:14:09;;;;;;;0.80;0.60;;;;;;;22.65;29.32;97042.63;4918333;29;20432;-75
2021/05/29 11:16:51;;;;;;;0.60;0.60;;;;;;;22.93;29.49;97037.56;4918550;29;20388;-75
2021/05/29 11:19:21;;;;;;;0.50;0.50;;;;;;;23.08;29.24;97032.88;4918798;29;20040;-75
2021/05/29 11:22:19;;;;;;;0.50;0.50;;;;;;;23.19;29.21;97033.56;4918559;29;20047;-75
2021/05/29 11:24:48;;;;;;;1.77;0.60;;;;;;;23.20;28.07;97029.78;4911656;29;20051;-75
2021/05/29 11:27:35;;;;;;;0.60;0.60;;;;;;;22.95;27.80;97027.38;4918467;29;20036;-75
2021/05/29 11:30:01;;;;;;;0.50;0.50;;;;;;;22.66;28.76;97037.00;4918157;29;20040;-75
2021/05/29 11:35:37;;;;;;;0.35;0.35;;;;;;;23.07;29.17;97033.16;4917663;29;20036;-75
2021/05/29 11:38:04;;;;;;;0.70;0.50;;;;;;;23.16;28.82;97031.47;4917165;29;20048;-75
2021/05/29 11:41:01;;;;;;;0.40;0.40;;;;;;;23.25;29.53;97032.44;4918112;29;20041;-75
2021/05/29 11:43:36;;;;;;;0.52;0.43;;;;;;;23.40;28.84;97030.66;4917119;29;20040;-75
2021/05/29 11:46:06;;;;;;;0.50;0.50;;;;;;;23.63;28.69;97023.69;4908469;29;20036;-75
2021/05/29 11:48:35;;;;;;;0.40;0.40;;;;;;;23.87;28.46;97031.69;4918168;29;20048;-75
2021/05/29 11:51:15;;;;;;;0.50;0.50;;;;;;;23.99;28.50;97021.34;4916586;29;20044;-75
2021/05/29 11:53:53;;;;;;;0.57;0.55;;;;;;;24.12;nan;97014.44;4917658;29;20044;-75
2021/05/29 11:56:28;;;;;;;0.73;0.35;;;;;;;24.24;28.07;97011.31;4907569;29;20393;-75
2021/05/29 11:58:55;;;;;;;0.50;0.50;;;;;;;24.16;28.29;97023.50;4909440;29;20055;-74
2021/05/29 12:01:30;;;;;;;0.70;0.50;;;;;;;23.96;27.85;97016.56;4917472;29;20055;-75
2021/05/29 12:03:59;;;;;;;0.85;0.60;;;;;;;24.01;27.98;97013.00;4916776;29;20070;-75